0TX1 – Local Weather Observations

Pecan Plantation

This weather station is operated by a private user located just north of the field. Data is gathered via OpenWeatherMap.org.

Last updated:
2019-05-22 13:46:26(8:46 am)

Temperature: 74.5 °F

Sunrise / Sunset: 6:26 am / 8:28 pm

Civil Dawn / Dusk: 5:59 am / 8:55 pm

Nearby METARs

KGDJ 221255Z AUTO 11007KT 5SM BR OVC009 22/20 A2974 RMK AO2 T02210200

KCPT 221255Z AUTO 15009KT 3SM BR OVC004 22/22 A2976 RMK AO2

KFWS 221249Z 15009KT 2 1/2SM BR OVC007 23/22 A2975

KSEP 221255Z AUTO 17007KT 5SM OVC024 20/19 A2977 RMK AO2 T02040186